Main page
METAR-TAF:

METAR-TAF

Airports :

Sri Guru Ram Dass Jee International Airport

Amritsar, India

latitude: 31-38N, longitude: 074-52E, elevation: 229 m

Current weather observation

The report was made 20 minutes ago, at 02:30 UTC
Calm wind
Temperature 27°C
Humidity 100%
Pressure 1008 hPa
Visibility: 2500 m
mist

METAR: VIAR 260230Z 00000KT 2500 BR NSC 27/27 Q1008 NOSIG

Time: 08:20 (02:50 UTC)

Forecast

The report was made 50 minutes ago, at 02:00 UTC
Forecast valid from 26 at 03 UTC to 26 at 12 UTC
Wind 2 kt from variable directions
Visibility: 3000 m
mist
Becoming
from 26 at 08 UTC to 26 at 10 UTC
Wind 8 kt from the West/Northwest
Visibility: 5000 m
Scattered clouds at a height of 3000 ft
haze

TAF: VIAR 260200Z 2603/2612 VRB02KT 3000 BR NSC BECMG 2608/2610 29008KT 5000 HZ SCT030

Weather observations and forecasts of more than 4000 airports (METAR and TAF reports).

The available stations are represented by yellow and red dots on the map.

Hover mouse over dot to see the name of the station.

Then click to see weather observations and forecasts.

To change the map : click on the green buttons with a black cross to zoom in, on the green button with a dash to zoom out, or on the green arrows for adjacent maps.


METAR-TAF: